Kaduna Old Airport

DN53 · Kaduna, 尼日利亚

罗盘
风向 的 风向 050° Kaduna Old Airport 5/23
风: 3 kt, 1 beaufort

3 kt

改变
0 1.000 2.000 3.000 4.000 5.000
CAVOK
METAR DNKA 020200Z 05003KT CAVOK 24/09 Q1014 NOSIG

METAR Kaduna Old Airport - DN53

Kaduna Old Airport是,尼日利亚中的小机场。 该机场有一条跑道: 5/23. 该领域的国际民航组织标志是DN53.

这份报告是针对2022年12月2日 03:00, 当地时间在Kaduna Airport进行的。

机场观察

风向为050°,速度为3 kt。

天气为CAVOK。这意味着在5.000 ft或MSA(最低安全高度)以下(以较高者为准)以下没有云。这也意味着没有观测到积雨云或高耸的积云,可见度为10 km 或者更多或更高。此外,不会有雾,降雨或其他重要天气。

温度和风寒是24 °C。 露点为9 °C,相对湿度为39%。 海平面上的气压为1014 hPa (QNH)。

白天

今天,太阳从06:33升起,在18:06降落。 这适用于Kaduna Old Airport,世界夏令时可能有所不同。 当地时间与世界标准时间之间的时差为+1 小时。 当前,没有夏令时有效。

公司介绍

我们没有关于这个机场的公司信息。

体会

到Vliegles.nl去找飞行课程,跳伞和其他飞行体验。 浏览页面,了解Kaduna Old Airport附近所有可用的活动。 你也可以使用搜索功能来寻找你所在地附近的特定飞行课程、跳伞或其他飞行体验。

跑道

Id 标题 侧风 逆风 侧风 %
5/23 046°-226° 3 kt 7 %

逆风成分最大的方向会被突出显示,并用于横风计算。 这并不一定意味着这个方向在使用。

温度 & 天气

温度 24 °C
露点 9 °C
相对湿度 39%
Kp-index 3 (0-9)

白天

日出
06:33 (3:03)
中午
12:20
日落
18:06

小工具

你想在你的网站上有一个关于Kaduna Old Airport的当前航空天气(METAR)的小部件吗?

显示HTML代码

我们和第三方通过cookies跟踪您在我们网站上的互联网行为。如果你继续,我们认为你同意我们的饼干政策